sensor_id;sensor_type;location;lat;lon;timestamp;temperature;humidity
39099;DHT22;24844;52.380;7.018;2022-09-03T00:00:35;17.00;94.50
39099;DHT22;24844;52.380;7.018;2022-09-03T00:06:11;17.10;94.40
39099;DHT22;24844;52.380;7.018;2022-09-03T00:08:49;17.00;94.60
39099;DHT22;24844;52.380;7.018;2022-09-03T00:11:24;16.80;94.90
39099;DHT22;24844;52.380;7.018;2022-09-03T00:13:59;16.90;94.90
39099;DHT22;24844;52.380;7.018;2022-09-03T00:16:33;16.80;95.10
39099;DHT22;24844;52.380;7.018;2022-09-03T00:19:02;16.80;94.80
39099;DHT22;24844;52.380;7.018;2022-09-03T00:21:38;16.70;95.20
39099;DHT22;24844;52.380;7.018;2022-09-03T00:24:07;16.70;95.40
39099;DHT22;24844;52.380;7.018;2022-09-03T00:26:34;16.70;95.40
39099;DHT22;24844;52.380;7.018;2022-09-03T00:29:06;16.50;95.60
39099;DHT22;24844;52.380;7.018;2022-09-03T00:31:45;16.60;95.30
39099;DHT22;24844;52.380;7.018;2022-09-03T00:36:48;16.40;95.80
39099;DHT22;24844;52.380;7.018;2022-09-03T00:39:19;16.50;95.10
39099;DHT22;24844;52.380;7.018;2022-09-03T00:50:08;16.50;94.00
39099;DHT22;24844;52.380;7.018;2022-09-03T00:55:15;16.30;94.40
39099;DHT22;24844;52.380;7.018;2022-09-03T01:00:27;16.20;94.80
39099;DHT22;24844;52.380;7.018;2022-09-03T01:03:10;16.30;94.50
39099;DHT22;24844;52.380;7.018;2022-09-03T01:13:32;16.10;94.60
39099;DHT22;24844;52.380;7.018;2022-09-03T01:21:26;16.10;94.70
39099;DHT22;24844;52.380;7.018;2022-09-03T01:24:41;16.00;94.90
39099;DHT22;24844;52.380;7.018;2022-09-03T01:30:14;15.90;95.10
39099;DHT22;24844;52.380;7.018;2022-09-03T01:45:53;15.70;95.10
39099;DHT22;24844;52.380;7.018;2022-09-03T01:48:44;15.70;95.50
39099;DHT22;24844;52.380;7.018;2022-09-03T01:51:19;15.50;96.10
39099;DHT22;24844;52.380;7.018;2022-09-03T01:56:43;15.40;96.30
39099;DHT22;24844;52.380;7.018;2022-09-03T01:59:31;15.50;95.80
39099;DHT22;24844;52.380;7.018;2022-09-03T02:02:20;15.50;95.60
39099;DHT22;24844;52.380;7.018;2022-09-03T02:05:41;15.40;96.30
39099;DHT22;24844;52.380;7.018;2022-09-03T02:07:49;15.30;96.70
39099;DHT22;24844;52.380;7.018;2022-09-03T02:12:58;15.10;97.00
39099;DHT22;24844;52.380;7.018;2022-09-03T02:15:26;15.00;97.50
39099;DHT22;24844;52.380;7.018;2022-09-03T02:17:54;14.90;98.10
39099;DHT22;24844;52.380;7.018;2022-09-03T02:20:26;15.00;97.40
39099;DHT22;24844;52.380;7.018;2022-09-03T02:22:53;14.90;97.90
39099;DHT22;24844;52.380;7.018;2022-09-03T02:25:20;15.00;97.60
39099;DHT22;24844;52.380;7.018;2022-09-03T02:27:47;15.10;97.40
39099;DHT22;24844;52.380;7.018;2022-09-03T02:30:13;15.00;97.80
39099;DHT22;24844;52.380;7.018;2022-09-03T02:32:39;14.80;98.10
39099;DHT22;24844;52.380;7.018;2022-09-03T02:35:05;14.90;98.10
39099;DHT22;24844;52.380;7.018;2022-09-03T02:37:31;14.80;98.70
39099;DHT22;24844;52.380;7.018;2022-09-03T02:39:56;14.90;98.20
39099;DHT22;24844;52.380;7.018;2022-09-03T02:42:22;14.90;98.10
39099;DHT22;24844;52.380;7.018;2022-09-03T02:44:56;14.60;99.30
39099;DHT22;24844;52.380;7.018;2022-09-03T02:47:29;14.90;98.50
39099;DHT22;24844;52.380;7.018;2022-09-03T02:49:56;14.80;98.60
39099;DHT22;24844;52.380;7.018;2022-09-03T02:52:22;14.60;99.10
39099;DHT22;24844;52.380;7.018;2022-09-03T02:54:47;14.70;98.70
39099;DHT22;24844;52.380;7.018;2022-09-03T02:57:14;14.50;99.90
39099;DHT22;24844;52.380;7.018;2022-09-03T02:59:41;14.60;99.80
39099;DHT22;24844;52.380;7.018;2022-09-03T03:02:09;14.40;99.90
39099;DHT22;24844;52.380;7.018;2022-09-03T03:04:35;14.50;99.90
39099;DHT22;24844;52.380;7.018;2022-09-03T03:07:00;14.50;99.90
39099;DHT22;24844;52.380;7.018;2022-09-03T03:09:26;14.50;99.90
39099;DHT22;24844;52.380;7.018;2022-09-03T03:11:52;14.50;99.80
39099;DHT22;24844;52.380;7.018;2022-09-03T03:14:19;14.40;99.90
39099;DHT22;24844;52.380;7.018;2022-09-03T03:16:45;14.40;99.90
39099;DHT22;24844;52.380;7.018;2022-09-03T03:19:11;14.30;99.90
39099;DHT22;24844;52.380;7.018;2022-09-03T03:21:36;14.40;99.90
39099;DHT22;24844;52.380;7.018;2022-09-03T03:24:03;14.30;99.90
39099;DHT22;24844;52.380;7.018;2022-09-03T03:26:28;14.20;99.90
39099;DHT22;24844;52.380;7.018;2022-09-03T03:28:59;14.30;99.80
39099;DHT22;24844;52.380;7.018;2022-09-03T03:31:25;14.20;99.80
39099;DHT22;24844;52.380;7.018;2022-09-03T03:33:56;14.20;99.90
39099;DHT22;24844;52.380;7.018;2022-09-03T03:36:24;14.30;99.40
39099;DHT22;24844;52.380;7.018;2022-09-03T03:38:53;14.30;99.00
39099;DHT22;24844;52.380;7.018;2022-09-03T03:41:21;14.30;99.10
39099;DHT22;24844;52.380;7.018;2022-09-03T03:43:51;14.30;98.70
39099;DHT22;24844;52.380;7.018;2022-09-03T03:46:16;14.20;99.00
39099;DHT22;24844;52.380;7.018;2022-09-03T03:48:42;14.20;98.90
39099;DHT22;24844;52.380;7.018;2022-09-03T03:51:09;14.20;99.30
39099;DHT22;24844;52.380;7.018;2022-09-03T03:53:36;14.00;99.60
39099;DHT22;24844;52.380;7.018;2022-09-03T03:56:04;13.90;99.00
39099;DHT22;24844;52.380;7.018;2022-09-03T03:58:31;14.00;98.50
39099;DHT22;24844;52.380;7.018;2022-09-03T04:01:08;13.90;98.60
39099;DHT22;24844;52.380;7.018;2022-09-03T04:03:35;13.90;98.70
39099;DHT22;24844;52.380;7.018;2022-09-03T04:06:01;13.90;98.40
39099;DHT22;24844;52.380;7.018;2022-09-03T04:08:29;14.00;98.50
39099;DHT22;24844;52.380;7.018;2022-09-03T04:11:00;13.80;98.80
39099;DHT22;24844;52.380;7.018;2022-09-03T04:13:33;13.90;98.60
39099;DHT22;24844;52.380;7.018;2022-09-03T04:16:04;13.90;98.50
39099;DHT22;24844;52.380;7.018;2022-09-03T04:18:30;13.90;98.70
39099;DHT22;24844;52.380;7.018;2022-09-03T04:21:05;13.80;98.60
39099;DHT22;24844;52.380;7.018;2022-09-03T04:23:33;13.80;99.20
39099;DHT22;24844;52.380;7.018;2022-09-03T04:25:59;13.80;99.20
39099;DHT22;24844;52.380;7.018;2022-09-03T04:28:25;13.80;98.80
39099;DHT22;24844;52.380;7.018;2022-09-03T04:30:51;13.80;98.80
39099;DHT22;24844;52.380;7.018;2022-09-03T04:33:16;13.70;99.20
39099;DHT22;24844;52.380;7.018;2022-09-03T04:35:42;13.80;98.60
39099;DHT22;24844;52.380;7.018;2022-09-03T04:38:08;13.70;99.00
39099;DHT22;24844;52.380;7.018;2022-09-03T04:40:33;13.80;98.80
39099;DHT22;24844;52.380;7.018;2022-09-03T04:42:59;13.80;98.80
39099;DHT22;24844;52.380;7.018;2022-09-03T04:45:25;13.80;98.40
39099;DHT22;24844;52.380;7.018;2022-09-03T04:48:00;13.60;99.60
39099;DHT22;24844;52.380;7.018;2022-09-03T04:50:27;13.70;99.60
39099;DHT22;24844;52.380;7.018;2022-09-03T04:52:54;13.70;99.40
39099;DHT22;24844;52.380;7.018;2022-09-03T04:55:21;13.70;99.10
39099;DHT22;24844;52.380;7.018;2022-09-03T04:57:46;13.70;99.10
39099;DHT22;24844;52.380;7.018;2022-09-03T05:00:12;13.50;99.90
39099;DHT22;24844;52.380;7.018;2022-09-03T05:02:38;13.60;99.70
39099;DHT22;24844;52.380;7.018;2022-09-03T05:05:03;13.60;99.60
39099;DHT22;24844;52.380;7.018;2022-09-03T05:07:30;13.70;99.60
39099;DHT22;24844;52.380;7.018;2022-09-03T05:10:05;13.60;99.90
39099;DHT22;24844;52.380;7.018;2022-09-03T05:12:31;13.60;99.90
39099;DHT22;24844;52.380;7.018;2022-09-03T05:14:57;13.60;99.90
39099;DHT22;24844;52.380;7.018;2022-09-03T05:17:24;13.60;99.90
39099;DHT22;24844;52.380;7.018;2022-09-03T05:19:49;13.80;99.70
39099;DHT22;24844;52.380;7.018;2022-09-03T05:22:15;13.90;99.70
39099;DHT22;24844;52.380;7.018;2022-09-03T05:24:46;13.90;99.70
39099;DHT22;24844;52.380;7.018;2022-09-03T05:27:13;13.90;99.80
39099;DHT22;24844;52.380;7.018;2022-09-03T05:29:42;13.90;99.90
39099;DHT22;24844;52.380;7.018;2022-09-03T05:32:08;13.70;99.90
39099;DHT22;24844;52.380;7.018;2022-09-03T05:34:33;13.90;99.90
39099;DHT22;24844;52.380;7.018;2022-09-03T05:36:59;14.00;99.90
39099;DHT22;24844;52.380;7.018;2022-09-03T05:39:24;13.90;99.90
39099;DHT22;24844;52.380;7.018;2022-09-03T05:41:50;14.00;99.90
39099;DHT22;24844;52.380;7.018;2022-09-03T05:44:16;14.00;99.90
39099;DHT22;24844;52.380;7.018;2022-09-03T05:46:42;14.20;99.90
39099;DHT22;24844;52.380;7.018;2022-09-03T05:49:08;14.20;99.90
39099;DHT22;24844;52.380;7.018;2022-09-03T05:51:36;14.40;99.90
39099;DHT22;24844;52.380;7.018;2022-09-03T05:54:05;14.40;99.90
39099;DHT22;24844;52.380;7.018;2022-09-03T05:56:33;14.50;99.90
39099;DHT22;24844;52.380;7.018;2022-09-03T05:59:03;14.60;99.80
39099;DHT22;24844;52.380;7.018;2022-09-03T06:01:41;14.50;99.90
39099;DHT22;24844;52.380;7.018;2022-09-03T06:04:12;14.60;99.90
39099;DHT22;24844;52.380;7.018;2022-09-03T06:06:40;14.50;99.90
39099;DHT22;24844;52.380;7.018;2022-09-03T06:09:09;14.90;99.90
39099;DHT22;24844;52.380;7.018;2022-09-03T06:11:36;14.90;99.90
39099;DHT22;24844;52.380;7.018;2022-09-03T06:14:05;14.80;99.90
39099;DHT22;24844;52.380;7.018;2022-09-03T06:16:33;15.00;99.60
39099;DHT22;24844;52.380;7.018;2022-09-03T06:18:59;15.40;99.10
39099;DHT22;24844;52.380;7.018;2022-09-03T06:21:25;15.50;98.70
39099;DHT22;24844;52.380;7.018;2022-09-03T06:23:52;15.20;99.10
39099;DHT22;24844;52.380;7.018;2022-09-03T06:26:20;15.10;99.30
39099;DHT22;24844;52.380;7.018;2022-09-03T06:28:46;15.40;98.80
39099;DHT22;24844;52.380;7.018;2022-09-03T06:31:14;15.40;99.00
39099;DHT22;24844;52.380;7.018;2022-09-03T06:33:41;15.50;98.90
39099;DHT22;24844;52.380;7.018;2022-09-03T06:36:09;15.70;98.50
39099;DHT22;24844;52.380;7.018;2022-09-03T06:38:36;15.70;98.20
39099;DHT22;24844;52.380;7.018;2022-09-03T06:41:15;15.90;98.10
39099;DHT22;24844;52.380;7.018;2022-09-03T06:43:56;15.50;98.60
39099;DHT22;24844;52.380;7.018;2022-09-03T06:46:23;15.80;98.50
39099;DHT22;24844;52.380;7.018;2022-09-03T06:48:50;15.80;98.40
39099;DHT22;24844;52.380;7.018;2022-09-03T06:51:18;16.20;98.00
39099;DHT22;24844;52.380;7.018;2022-09-03T06:53:46;16.00;97.80
39099;DHT22;24844;52.380;7.018;2022-09-03T06:56:14;16.20;97.40
39099;DHT22;24844;52.380;7.018;2022-09-03T06:58:43;16.40;97.40
39099;DHT22;24844;52.380;7.018;2022-09-03T07:01:11;16.50;97.30
39099;DHT22;24844;52.380;7.018;2022-09-03T07:03:39;16.70;96.90
39099;DHT22;24844;52.380;7.018;2022-09-03T07:06:10;16.70;96.70
39099;DHT22;24844;52.380;7.018;2022-09-03T07:08:36;16.50;97.00
39099;DHT22;24844;52.380;7.018;2022-09-03T07:11:03;16.80;96.60
39099;DHT22;24844;52.380;7.018;2022-09-03T07:13:34;17.40;95.90
39099;DHT22;24844;52.380;7.018;2022-09-03T07:16:00;17.20;95.80
39099;DHT22;24844;52.380;7.018;2022-09-03T07:18:26;17.20;95.80
39099;DHT22;24844;52.380;7.018;2022-09-03T07:20:57;17.50;95.40
39099;DHT22;24844;52.380;7.018;2022-09-03T07:23:23;17.70;95.10
39099;DHT22;24844;52.380;7.018;2022-09-03T07:25:56;17.80;94.70
39099;DHT22;24844;52.380;7.018;2022-09-03T07:28:23;18.00;94.50
39099;DHT22;24844;52.380;7.018;2022-09-03T07:30:50;18.10;94.70
39099;DHT22;24844;52.380;7.018;2022-09-03T07:33:15;18.50;94.30
39099;DHT22;24844;52.380;7.018;2022-09-03T07:35:42;18.40;94.20
39099;DHT22;24844;52.380;7.018;2022-09-03T07:38:07;18.70;94.10
39099;DHT22;24844;52.380;7.018;2022-09-03T07:40:34;18.90;93.90
39099;DHT22;24844;52.380;7.018;2022-09-03T07:42:59;19.10;95.50
39099;DHT22;24844;52.380;7.018;2022-09-03T07:45:29;19.60;95.00
39099;DHT22;24844;52.380;7.018;2022-09-03T07:47:55;19.60;94.80
39099;DHT22;24844;52.380;7.018;2022-09-03T07:50:21;20.40;94.30
39099;DHT22;24844;52.380;7.018;2022-09-03T07:52:47;21.20;96.70
39099;DHT22;24844;52.380;7.018;2022-09-03T07:55:13;22.20;99.30
39099;DHT22;24844;52.380;7.018;2022-09-03T07:57:38;22.30;98.30
39099;DHT22;24844;52.380;7.018;2022-09-03T08:00:05;22.40;97.90
39099;DHT22;24844;52.380;7.018;2022-09-03T08:02:35;22.40;97.70
39099;DHT22;24844;52.380;7.018;2022-09-03T08:05:00;22.70;97.80
39099;DHT22;24844;52.380;7.018;2022-09-03T08:07:28;23.50;97.30
39099;DHT22;24844;52.380;7.018;2022-09-03T08:09:54;24.10;94.00
39099;DHT22;24844;52.380;7.018;2022-09-03T08:12:20;23.60;94.30
39099;DHT22;24844;52.380;7.018;2022-09-03T08:14:46;24.10;93.80
39099;DHT22;24844;52.380;7.018;2022-09-03T08:17:12;25.40;95.70
39099;DHT22;24844;52.380;7.018;2022-09-03T08:19:38;26.10;94.80
39099;DHT22;24844;52.380;7.018;2022-09-03T08:22:05;26.40;94.10
39099;DHT22;24844;52.380;7.018;2022-09-03T08:24:30;26.40;93.00
39099;DHT22;24844;52.380;7.018;2022-09-03T08:26:57;26.30;93.10
39099;DHT22;24844;52.380;7.018;2022-09-03T08:29:23;26.80;92.70
39099;DHT22;24844;52.380;7.018;2022-09-03T08:31:48;27.00;92.00
39099;DHT22;24844;52.380;7.018;2022-09-03T08:34:14;26.50;92.20
39099;DHT22;24844;52.380;7.018;2022-09-03T08:36:41;26.70;92.20
39099;DHT22;24844;52.380;7.018;2022-09-03T08:39:08;26.80;92.10
39099;DHT22;24844;52.380;7.018;2022-09-03T08:52:03;26.80;91.80
39099;DHT22;24844;52.380;7.018;2022-09-03T08:54:30;27.10;91.30
39099;DHT22;24844;52.380;7.018;2022-09-03T08:57:00;26.40;91.70
39099;DHT22;24844;52.380;7.018;2022-09-03T08:59:27;26.60;91.50
39099;DHT22;24844;52.380;7.018;2022-09-03T09:10:18;29.80;89.30
39099;DHT22;24844;52.380;7.018;2022-09-03T09:13:09;30.90;89.50
39099;DHT22;24844;52.380;7.018;2022-09-03T09:21:25;31.90;90.20
39099;DHT22;24844;52.380;7.018;2022-09-03T09:23:54;31.70;90.10
39099;DHT22;24844;52.380;7.018;2022-09-03T09:26:23;30.60;90.20
39099;DHT22;24844;52.380;7.018;2022-09-03T09:28:54;31.00;90.10
39099;DHT22;24844;52.380;7.018;2022-09-03T09:31:22;30.50;89.90
39099;DHT22;24844;52.380;7.018;2022-09-03T09:33:48;29.80;89.90
39099;DHT22;24844;52.380;7.018;2022-09-03T09:36:16;30.00;89.40
39099;DHT22;24844;52.380;7.018;2022-09-03T09:38:44;29.20;90.40
39099;DHT22;24844;52.380;7.018;2022-09-03T09:41:16;29.90;90.00
39099;DHT22;24844;52.380;7.018;2022-09-03T09:43:43;30.70;89.40
39099;DHT22;24844;52.380;7.018;2022-09-03T09:46:21;31.40;88.10
39099;DHT22;24844;52.380;7.018;2022-09-03T09:48:52;31.00;88.80
39099;DHT22;24844;52.380;7.018;2022-09-03T09:51:25;30.60;89.00
39099;DHT22;24844;52.380;7.018;2022-09-03T09:56:27;29.70;88.00
39099;DHT22;24844;52.380;7.018;2022-09-03T09:59:07;30.00;88.80
39099;DHT22;24844;52.380;7.018;2022-09-03T10:01:34;30.50;88.30
39099;DHT22;24844;52.380;7.018;2022-09-03T10:04:10;31.30;87.20
39099;DHT22;24844;52.380;7.018;2022-09-03T10:06:36;30.40;87.40
39099;DHT22;24844;52.380;7.018;2022-09-03T10:09:28;29.80;87.90
39099;DHT22;24844;52.380;7.018;2022-09-03T10:15:00;29.90;88.50
39099;DHT22;24844;52.380;7.018;2022-09-03T10:17:51;31.30;86.90
39099;DHT22;24844;52.380;7.018;2022-09-03T10:20:35;30.00;87.20
39099;DHT22;24844;52.380;7.018;2022-09-03T10:23:14;28.80;88.50
39099;DHT22;24844;52.380;7.018;2022-09-03T10:26:05;29.70;87.50
39099;DHT22;24844;52.380;7.018;2022-09-03T10:28:38;30.00;87.40
39099;DHT22;24844;52.380;7.018;2022-09-03T10:31:26;29.10;88.20
39099;DHT22;24844;52.380;7.018;2022-09-03T10:33:56;28.80;88.90
39099;DHT22;24844;52.380;7.018;2022-09-03T10:36:33;27.80;87.80
39099;DHT22;24844;52.380;7.018;2022-09-03T10:39:21;28.70;86.80
39099;DHT22;24844;52.380;7.018;2022-09-03T10:52:35;31.30;84.30
39099;DHT22;24844;52.380;7.018;2022-09-03T11:06:29;30.20;84.30
39099;DHT22;24844;52.380;7.018;2022-09-03T11:09:08;30.00;84.40
39099;DHT22;24844;52.380;7.018;2022-09-03T11:11:44;29.50;84.80
39099;DHT22;24844;52.380;7.018;2022-09-03T11:14:15;29.70;84.30
39099;DHT22;24844;52.380;7.018;2022-09-03T11:16:52;29.30;83.80
39099;DHT22;24844;52.380;7.018;2022-09-03T11:19:26;27.60;85.60
39099;DHT22;24844;52.380;7.018;2022-09-03T11:21:55;26.60;86.10
39099;DHT22;24844;52.380;7.018;2022-09-03T11:24:23;26.00;85.30
39099;DHT22;24844;52.380;7.018;2022-09-03T11:26:56;25.60;84.90
39099;DHT22;24844;52.380;7.018;2022-09-03T11:29:36;25.70;85.10
39099;DHT22;24844;52.380;7.018;2022-09-03T11:32:08;26.20;83.60
39099;DHT22;24844;52.380;7.018;2022-09-03T11:34:50;26.40;84.10
39099;DHT22;24844;52.380;7.018;2022-09-03T11:37:25;25.80;85.20
39099;DHT22;24844;52.380;7.018;2022-09-03T11:40:14;25.60;84.50
39099;DHT22;24844;52.380;7.018;2022-09-03T11:42:45;25.80;84.30
39099;DHT22;24844;52.380;7.018;2022-09-03T11:47:45;25.30;85.80
39099;DHT22;24844;52.380;7.018;2022-09-03T11:50:23;25.50;85.70
39099;DHT22;24844;52.380;7.018;2022-09-03T11:52:51;25.70;85.00
39099;DHT22;24844;52.380;7.018;2022-09-03T11:55:25;25.90;85.40
39099;DHT22;24844;52.380;7.018;2022-09-03T11:57:51;25.80;85.10
39099;DHT22;24844;52.380;7.018;2022-09-03T12:00:18;25.90;85.10
39099;DHT22;24844;52.380;7.018;2022-09-03T12:02:54;26.40;85.20
39099;DHT22;24844;52.380;7.018;2022-09-03T12:08:09;26.50;84.20
39099;DHT22;24844;52.380;7.018;2022-09-03T12:13:41;26.30;84.60
39099;DHT22;24844;52.380;7.018;2022-09-03T12:18:40;26.40;84.60
39099;DHT22;24844;52.380;7.018;2022-09-03T12:21:07;26.10;84.40
39099;DHT22;24844;52.380;7.018;2022-09-03T12:23:46;26.00;84.20
39099;DHT22;24844;52.380;7.018;2022-09-03T12:26:25;26.40;83.70
39099;DHT22;24844;52.380;7.018;2022-09-03T12:28:53;26.50;83.30
39099;DHT22;24844;52.380;7.018;2022-09-03T12:31:31;26.50;84.10
39099;DHT22;24844;52.380;7.018;2022-09-03T12:33:58;26.50;83.20
39099;DHT22;24844;52.380;7.018;2022-09-03T12:36:25;26.20;83.60
39099;DHT22;24844;52.380;7.018;2022-09-03T12:39:11;26.60;83.80
39099;DHT22;24844;52.380;7.018;2022-09-03T12:41:37;26.50;83.20
39099;DHT22;24844;52.380;7.018;2022-09-03T12:44:03;26.60;83.00
39099;DHT22;24844;52.380;7.018;2022-09-03T12:46:31;26.50;82.90
39099;DHT22;24844;52.380;7.018;2022-09-03T12:48:59;26.50;83.20
39099;DHT22;24844;52.380;7.018;2022-09-03T12:51:42;26.30;83.50
39099;DHT22;24844;52.380;7.018;2022-09-03T12:54:10;27.00;83.00
39099;DHT22;24844;52.380;7.018;2022-09-03T12:56:53;26.70;83.20
39099;DHT22;24844;52.380;7.018;2022-09-03T12:59:21;27.10;82.70
39099;DHT22;24844;52.380;7.018;2022-09-03T13:01:50;26.50;82.50
39099;DHT22;24844;52.380;7.018;2022-09-03T13:04:30;26.10;83.10
39099;DHT22;24844;52.380;7.018;2022-09-03T13:09:39;26.00;83.40
39099;DHT22;24844;52.380;7.018;2022-09-03T13:12:05;26.00;83.40
39099;DHT22;24844;52.380;7.018;2022-09-03T13:14:42;26.00;83.60
39099;DHT22;24844;52.380;7.018;2022-09-03T13:17:23;26.20;83.10
39099;DHT22;24844;52.380;7.018;2022-09-03T13:25:48;26.80;82.60
39099;DHT22;24844;52.380;7.018;2022-09-03T13:31:43;26.10;83.90
39099;DHT22;24844;52.380;7.018;2022-09-03T13:34:24;25.90;84.60
39099;DHT22;24844;52.380;7.018;2022-09-03T13:39:39;26.50;83.80
39099;DHT22;24844;52.380;7.018;2022-09-03T13:48:17;26.70;85.50
39099;DHT22;24844;52.380;7.018;2022-09-03T13:51:24;26.90;83.10
39099;DHT22;24844;52.380;7.018;2022-09-03T13:54:06;26.60;83.70
39099;DHT22;24844;52.380;7.018;2022-09-03T13:59:48;26.80;84.10
39099;DHT22;24844;52.380;7.018;2022-09-03T14:10:58;27.00;83.10
39099;DHT22;24844;52.380;7.018;2022-09-03T14:18:40;26.30;83.50
39099;DHT22;24844;52.380;7.018;2022-09-03T14:21:21;26.70;83.90
39099;DHT22;24844;52.380;7.018;2022-09-03T14:24:15;26.50;84.00
39099;DHT22;24844;52.380;7.018;2022-09-03T14:26:53;26.50;84.00
39099;DHT22;24844;52.380;7.018;2022-09-03T14:29:30;26.90;83.90
39099;DHT22;24844;52.380;7.018;2022-09-03T14:40:28;27.30;84.10
39099;DHT22;24844;52.380;7.018;2022-09-03T14:46:02;27.80;83.60
39099;DHT22;24844;52.380;7.018;2022-09-03T14:54:26;27.10;84.50
39099;DHT22;24844;52.380;7.018;2022-09-03T15:12:56;26.40;86.80
39099;DHT22;24844;52.380;7.018;2022-09-03T15:18:31;26.50;86.40
39099;DHT22;24844;52.380;7.018;2022-09-03T15:21:27;26.60;87.10
39099;DHT22;24844;52.380;7.018;2022-09-03T15:24:05;26.40;87.00
39099;DHT22;24844;52.380;7.018;2022-09-03T15:26:46;26.60;87.20
39099;DHT22;24844;52.380;7.018;2022-09-03T15:29:38;26.70;86.50
39099;DHT22;24844;52.380;7.018;2022-09-03T15:35:04;26.50;86.40
39099;DHT22;24844;52.380;7.018;2022-09-03T15:40:28;26.10;88.60
39099;DHT22;24844;52.380;7.018;2022-09-03T15:43:20;26.10;87.90
39099;DHT22;24844;52.380;7.018;2022-09-03T15:46:02;25.90;88.40
39099;DHT22;24844;52.380;7.018;2022-09-03T15:51:33;26.00;88.40
39099;DHT22;24844;52.380;7.018;2022-09-03T15:56:54;26.10;86.90
39099;DHT22;24844;52.380;7.018;2022-09-03T15:59:42;26.00;86.60
39099;DHT22;24844;52.380;7.018;2022-09-03T16:02:19;25.90;87.20
39099;DHT22;24844;52.380;7.018;2022-09-03T16:09:58;26.00;86.70
39099;DHT22;24844;52.380;7.018;2022-09-03T16:13:00;26.00;86.60
39099;DHT22;24844;52.380;7.018;2022-09-03T16:15:37;26.30;86.30
39099;DHT22;24844;52.380;7.018;2022-09-03T16:18:40;26.20;86.40
39099;DHT22;24844;52.380;7.018;2022-09-03T16:21:14;26.30;86.10
39099;DHT22;24844;52.380;7.018;2022-09-03T16:23:54;26.30;86.40
39099;DHT22;24844;52.380;7.018;2022-09-03T16:26:29;26.00;86.20
39099;DHT22;24844;52.380;7.018;2022-09-03T16:29:45;25.80;86.70
39099;DHT22;24844;52.380;7.018;2022-09-03T16:32:36;25.90;86.50
39099;DHT22;24844;52.380;7.018;2022-09-03T16:43:20;26.20;85.80
39099;DHT22;24844;52.380;7.018;2022-09-03T16:46:11;26.30;86.20
39099;DHT22;24844;52.380;7.018;2022-09-03T16:51:42;25.90;85.90
39099;DHT22;24844;52.380;7.018;2022-09-03T16:54:18;25.80;86.60
39099;DHT22;24844;52.380;7.018;2022-09-03T17:05:50;25.90;86.80
39099;DHT22;24844;52.380;7.018;2022-09-03T17:14:10;26.50;85.80
39099;DHT22;24844;52.380;7.018;2022-09-03T17:24:50;26.10;86.40
39099;DHT22;24844;52.380;7.018;2022-09-03T17:27:55;25.80;86.70
39099;DHT22;24844;52.380;7.018;2022-09-03T17:30:49;25.60;86.70
39099;DHT22;24844;52.380;7.018;2022-09-03T17:33:30;25.60;86.70
39099;DHT22;24844;52.380;7.018;2022-09-03T17:36:09;25.90;86.40
39099;DHT22;24844;52.380;7.018;2022-09-03T17:38:43;25.60;87.10
39099;DHT22;24844;52.380;7.018;2022-09-03T17:41:29;25.70;86.90
39099;DHT22;24844;52.380;7.018;2022-09-03T17:44:13;25.70;87.00
39099;DHT22;24844;52.380;7.018;2022-09-03T17:52:42;25.30;87.70
39099;DHT22;24844;52.380;7.018;2022-09-03T17:58:15;25.00;88.00
39099;DHT22;24844;52.380;7.018;2022-09-03T18:01:05;25.10;88.30
39099;DHT22;24844;52.380;7.018;2022-09-03T18:11:49;24.50;89.80
39099;DHT22;24844;52.380;7.018;2022-09-03T18:14:36;24.50;90.00
39099;DHT22;24844;52.380;7.018;2022-09-03T18:19:51;24.30;90.20
39099;DHT22;24844;52.380;7.018;2022-09-03T18:23:20;24.30;90.20
39099;DHT22;24844;52.380;7.018;2022-09-03T18:26:02;24.40;90.20
39099;DHT22;24844;52.380;7.018;2022-09-03T18:28:54;24.10;90.40
39099;DHT22;24844;52.380;7.018;2022-09-03T18:31:39;24.10;90.60
39099;DHT22;24844;52.380;7.018;2022-09-03T18:34:30;24.00;90.60
39099;DHT22;24844;52.380;7.018;2022-09-03T18:37:20;23.90;91.00
39099;DHT22;24844;52.380;7.018;2022-09-03T18:40:08;23.70;91.40
39099;DHT22;24844;52.380;7.018;2022-09-03T18:43:18;23.50;91.70
39099;DHT22;24844;52.380;7.018;2022-09-03T18:46:16;23.40;92.20
39099;DHT22;24844;52.380;7.018;2022-09-03T18:49:16;23.30;92.00
39099;DHT22;24844;52.380;7.018;2022-09-03T18:52:10;23.30;92.30
39099;DHT22;24844;52.380;7.018;2022-09-03T18:58:11;23.20;92.40
39099;DHT22;24844;52.380;7.018;2022-09-03T19:01:21;23.10;92.40
39099;DHT22;24844;52.380;7.018;2022-09-03T19:08:00;23.00;92.70
39099;DHT22;24844;52.380;7.018;2022-09-03T19:11:03;22.70;93.50
39099;DHT22;24844;52.380;7.018;2022-09-03T19:22:11;22.00;95.70
39099;DHT22;24844;52.380;7.018;2022-09-03T19:25:03;22.10;95.70
39099;DHT22;24844;52.380;7.018;2022-09-03T19:28:05;22.10;96.20
39099;DHT22;24844;52.380;7.018;2022-09-03T20:00:43;21.60;96.70
39099;DHT22;24844;52.380;7.018;2022-09-03T20:03:28;22.00;94.50
39099;DHT22;24844;52.380;7.018;2022-09-03T20:06:13;21.40;86.70
39099;DHT22;24844;52.380;7.018;2022-09-03T20:09:04;21.80;84.00
39099;DHT22;24844;52.380;7.018;2022-09-03T20:11:50;21.70;83.10
39099;DHT22;24844;52.380;7.018;2022-09-03T20:14:16;21.70;83.60
39099;DHT22;24844;52.380;7.018;2022-09-03T20:22:52;21.40;91.10
39099;DHT22;24844;52.380;7.018;2022-09-03T20:26:17;21.30;94.70
39099;DHT22;24844;52.380;7.018;2022-09-03T20:31:00;21.00;96.30
39099;DHT22;24844;52.380;7.018;2022-09-03T20:33:38;21.00;96.30
39099;DHT22;24844;52.380;7.018;2022-09-03T20:39:00;20.80;96.00
39099;DHT22;24844;52.380;7.018;2022-09-03T20:52:53;20.40;96.40
39099;DHT22;24844;52.380;7.018;2022-09-03T20:55:26;20.40;96.30
39099;DHT22;24844;52.380;7.018;2022-09-03T21:00:38;20.30;97.00
39099;DHT22;24844;52.380;7.018;2022-09-03T21:09:05;20.20;97.20
39099;DHT22;24844;52.380;7.018;2022-09-03T21:11:39;20.10;97.40
39099;DHT22;24844;52.380;7.018;2022-09-03T21:23:04;19.80;97.90
39099;DHT22;24844;52.380;7.018;2022-09-03T21:25:38;19.70;97.80
39099;DHT22;24844;52.380;7.018;2022-09-03T21:28:32;19.70;98.20
39099;DHT22;24844;52.380;7.018;2022-09-03T21:33:52;19.50;98.30
39099;DHT22;24844;52.380;7.018;2022-09-03T21:36:27;19.50;98.30
39099;DHT22;24844;52.380;7.018;2022-09-03T21:39:01;19.50;98.60
39099;DHT22;24844;52.380;7.018;2022-09-03T21:41:46;19.40;98.80
39099;DHT22;24844;52.380;7.018;2022-09-03T21:47:15;19.30;99.20
39099;DHT22;24844;52.380;7.018;2022-09-03T21:52:16;19.30;99.50
39099;DHT22;24844;52.380;7.018;2022-09-03T21:54:43;19.30;99.70
39099;DHT22;24844;52.380;7.018;2022-09-03T22:02:27;19.10;99.90
39099;DHT22;24844;52.380;7.018;2022-09-03T22:04:54;19.20;99.90
39099;DHT22;24844;52.380;7.018;2022-09-03T22:15:35;19.00;99.90
39099;DHT22;24844;52.380;7.018;2022-09-03T22:18:11;19.00;99.90